Time;durP1;ratioP1;P1;durP2;ratioP2;P2;SDS_P1;SDS_P2;PMS_P1;PMS_P2;Temp;Humidity;BMP_temperature;BMP_pressure;BME280_temperature;BME280_humidity;BME280_pressure;Samples;Min_cycle;Max_cycle;Signal;HPM_P1;HPM_P2
2022/07/24 00:00:24;;;;;;;318.95;302.77;;;;;;;22.93;65.21;97041.56;5072688;28;20264;-66
2022/07/24 00:02:49;;;;;;;267.30;253.38;;;;;;;22.91;65.43;97037.59;5074069;28;20667;-66
2022/07/24 00:05:15;;;;;;;112.80;106.43;;;;;;;22.95;65.01;97043.94;5073090;28;20205;-66
2022/07/24 00:07:40;;;;;;;108.22;101.85;;;;;;;22.87;65.13;97047.31;5073994;28;20241;-66
2022/07/24 00:10:06;;;;;;;146.38;138.82;;;;;;;22.96;65.09;97042.88;5073717;28;20185;-67
2022/07/24 00:12:32;;;;;;;108.85;102.97;;;;;;;22.89;64.96;97048.63;5073927;28;20174;-66
2022/07/24 00:14:57;;;;;;;105.65;99.85;;;;;;;22.74;65.41;97047.03;5074017;28;20185;-66
2022/07/24 00:17:23;;;;;;;91.82;86.80;;;;;;;22.84;65.04;97040.69;5073670;28;20188;-66
2022/07/24 00:19:48;;;;;;;95.18;89.78;;;;;;;22.83;65.38;97039.13;5073809;28;20185;-66
2022/07/24 00:22:14;;;;;;;106.60;100.75;;;;;;;22.89;64.80;97043.25;5073630;28;20182;-66
2022/07/24 00:24:39;;;;;;;125.80;119.13;;;;;;;22.86;64.59;97040.38;5073554;28;20652;-66
2022/07/24 00:27:04;;;;;;;141.57;134.00;;;;;;;22.89;64.31;97034.44;5073838;28;20220;-66
2022/07/24 00:29:30;;;;;;;313.98;298.27;;;;;;;22.89;63.48;97039.78;5073440;28;20314;-65
2022/07/24 00:31:55;;;;;;;382.65;363.60;;;;;;;22.96;63.30;97024.91;5073448;28;20186;-66
2022/07/24 00:34:20;;;;;;;307.40;292.05;;;;;;;22.90;63.63;97026.13;5072930;28;20225;-66
2022/07/24 00:36:46;;;;;;;283.08;268.88;;;;;;;22.82;63.94;97032.19;5073120;28;20185;-65
2022/07/24 00:39:11;;;;;;;284.10;269.88;;;;;;;22.85;64.00;97030.81;5073554;28;20593;-66
2022/07/24 00:41:37;;;;;;;76.72;72.45;;;;;;;22.83;64.46;97027.63;5073268;28;20185;-66
2022/07/24 00:44:12;;;;;;;103.10;97.28;;;;;;;22.65;64.83;97024.72;5073390;28;20189;-66
2022/07/24 00:46:39;;;;;;;99.82;94.22;;;;;;;22.49;66.00;97026.13;5072907;28;20222;-66
2022/07/24 00:49:09;;;;;;;122.10;115.47;;;;;;;22.39;66.23;97029.78;5073280;28;20256;-66
2022/07/24 00:51:35;;;;;;;146.45;138.57;;;;;;;22.48;65.51;97031.75;5073373;28;20216;-67
2022/07/24 00:54:05;;;;;;;122.13;115.32;;;;;;;22.63;64.92;97028.78;5073020;28;20208;-66
2022/07/24 00:56:30;;;;;;;166.63;157.75;;;;;;;22.55;65.51;97026.81;5055058;28;20225;-67
2022/07/24 00:58:56;;;;;;;260.90;247.27;;;;;;;22.52;65.93;97022.06;5072230;28;20181;-67
2022/07/24 01:01:21;;;;;;;271.05;256.85;;;;;;;22.53;65.57;97028.97;5072425;28;20181;-67
2022/07/24 01:03:47;;;;;;;269.48;255.40;;;;;;;22.49;65.64;97028.00;5072838;28;20583;-67
2022/07/24 01:06:13;;;;;;;246.82;234.05;;;;;;;22.49;65.20;97028.78;5072596;28;20297;-66
2022/07/24 01:08:40;;;;;;;234.18;221.63;;;;;;;22.52;65.13;97043.44;5072949;28;20272;-66
2022/07/24 01:11:05;;;;;;;189.50;179.52;;;;;;;22.59;64.65;97033.94;5072702;28;20184;-67
2022/07/24 01:13:31;;;;;;;136.52;129.15;;;;;;;22.60;64.08;97032.06;5072640;28;20792;-66
2022/07/24 01:15:57;;;;;;;182.57;172.68;;;;;;;22.47;64.90;97044.31;5072940;28;20199;-66
2022/07/24 01:18:23;;;;;;;159.00;150.52;;;;;;;22.43;64.71;97038.00;5072282;28;20185;-67
2022/07/24 01:20:49;;;;;;;142.50;134.75;;;;;;;22.47;64.65;97033.63;5073050;28;20705;-66
2022/07/24 01:23:14;;;;;;;166.38;157.27;;;;;;;22.44;64.98;97034.25;5072299;28;20191;-66
2022/07/24 01:25:41;;;;;;;252.73;239.68;;;;;;;22.20;65.97;97037.06;5072883;28;20284;-66
2022/07/24 01:28:06;;;;;;;197.73;187.02;;;;;;;22.03;67.36;97028.03;5072734;28;20681;-66
2022/07/24 01:30:31;;;;;;;203.25;191.93;;;;;;;21.99;68.40;97030.50;5072596;28;20185;-67
2022/07/24 01:32:57;;;;;;;485.13;456.58;;;;;;;21.75;70.79;97029.81;5072766;28;20212;-66
2022/07/24 01:35:23;;;;;;;149.52;140.88;;;;;;;21.69;71.81;97033.66;5072692;28;20279;-67
2022/07/24 01:37:48;;;;;;;138.68;130.88;;;;;;;21.88;71.13;97027.19;5072811;28;20327;-66
2022/07/24 01:40:13;;;;;;;178.52;168.55;;;;;;;21.80;71.81;97027.06;5072679;28;20174;-66
2022/07/24 01:42:39;;;;;;;213.48;201.70;;;;;;;21.82;71.68;97035.56;5072464;28;20650;-66
2022/07/24 01:45:05;;;;;;;294.02;277.83;;;;;;;21.65;72.34;97038.78;5072264;28;20610;-66
2022/07/24 01:47:30;;;;;;;429.80;404.85;;;;;;;21.81;71.97;97039.31;5071486;28;20191;-66
2022/07/24 01:49:56;;;;;;;527.97;496.58;;;;;;;21.72;72.34;97036.53;5072698;28;20182;-66
2022/07/24 01:52:25;;;;;;;588.10;552.85;;;;;;;21.76;71.94;97039.41;5072193;28;20596;-66
2022/07/24 01:54:51;;;;;;;603.15;566.10;;;;;;;21.83;71.71;97029.16;5072277;28;20319;-67
2022/07/24 01:57:16;;;;;;;645.47;605.50;;;;;;;21.63;72.29;97029.47;5072404;28;20216;-66
2022/07/24 01:59:41;;;;;;;662.20;620.28;;;;;;;21.56;72.66;97037.88;5071983;28;20217;-67
2022/07/24 02:02:07;;;;;;;672.03;629.00;;;;;;;21.49;72.69;97027.56;5072306;28;20181;-66
2022/07/24 02:04:32;;;;;;;682.75;639.30;;;;;;;21.53;72.51;97030.44;5072345;28;20196;-66
2022/07/24 02:06:57;;;;;;;711.35;665.50;;;;;;;21.58;72.32;97027.69;5071617;28;20254;-66
2022/07/24 02:09:23;;;;;;;663.65;621.40;;;;;;;21.52;73.54;97028.84;5072495;28;20181;-66
2022/07/24 02:11:48;;;;;;;403.17;379.67;;;;;;;21.44;74.13;97027.63;5072256;28;20311;-66
2022/07/24 02:14:13;;;;;;;217.95;205.98;;;;;;;21.48;74.35;97023.31;5071949;28;20268;-67
2022/07/24 02:16:39;;;;;;;206.38;195.20;;;;;;;21.39;74.85;97029.59;5072333;28;20555;-66
2022/07/24 02:19:04;;;;;;;233.32;220.43;;;;;;;21.43;74.80;97026.06;5072608;28;20309;-66
2022/07/24 02:21:30;;;;;;;272.20;256.95;;;;;;;21.39;75.58;97025.06;5072302;28;20182;-66
2022/07/24 02:23:55;;;;;;;94.55;89.00;;;;;;;21.45;75.94;97026.56;5075117;28;20686;-66
2022/07/24 02:26:20;;;;;;;115.03;108.25;;;;;;;21.47;76.62;97035.03;5076054;28;20212;-66
2022/07/24 02:28:46;;;;;;;249.98;235.70;;;;;;;21.28;78.19;97031.63;5076003;28;20605;-67
2022/07/24 02:31:11;;;;;;;250.98;236.98;;;;;;;21.06;80.56;97031.38;5075612;28;20335;-68
2022/07/24 02:33:36;;;;;;;141.82;133.85;;;;;;;21.01;81.54;97023.44;5074924;28;20638;-66
2022/07/24 02:36:02;;;;;;;55.60;51.97;;;;;;;20.87;82.56;97025.22;5076076;28;20543;-66
2022/07/24 02:38:28;;;;;;;52.38;48.83;;;;;;;20.82;82.79;97023.41;5040815;28;20191;-66
2022/07/24 02:40:53;;;;;;;80.43;75.40;;;;;;;21.09;81.82;97026.25;5075918;28;20192;-66
2022/07/24 02:43:18;;;;;;;64.10;59.88;;;;;;;21.01;81.73;97028.75;5075396;28;20189;-66
2022/07/24 02:45:44;;;;;;;62.13;58.10;;;;;;;20.94;82.53;97029.13;5075232;28;20213;-68
2022/07/24 02:48:09;;;;;;;73.40;68.63;;;;;;;20.88;83.08;97024.94;5075698;28;20200;-66
2022/07/24 02:50:35;;;;;;;96.05;90.18;;;;;;;20.79;83.79;97029.28;5075800;28;20189;-66
2022/07/24 02:53:01;;;;;;;173.25;163.23;;;;;;;20.91;83.72;97021.69;5075322;28;20634;-66
2022/07/24 02:55:28;;;;;;;259.33;244.35;;;;;;;20.83;84.43;97019.66;5075294;28;20243;-66
2022/07/24 02:57:55;;;;;;;316.85;298.33;;;;;;;20.79;85.05;97028.53;5074953;28;20609;-66
2022/07/24 03:00:21;;;;;;;285.58;269.15;;;;;;;20.79;84.70;97025.84;5075165;28;20177;-67
2022/07/24 03:02:46;;;;;;;243.60;229.75;;;;;;;20.85;84.44;97030.81;5075159;28;20238;-66
2022/07/24 03:05:12;;;;;;;203.68;191.48;;;;;;;20.97;83.90;97030.41;5074866;28;20564;-66
2022/07/24 03:07:37;;;;;;;178.45;168.23;;;;;;;21.04;83.36;97028.97;5075363;28;20235;-66
2022/07/24 03:10:04;;;;;;;162.10;152.68;;;;;;;20.99;83.92;97029.03;5075126;28;20586;-66
2022/07/24 03:12:30;;;;;;;109.82;103.47;;;;;;;20.94;83.81;97026.44;5075276;28;20189;-66
2022/07/24 03:14:55;;;;;;;72.50;67.80;;;;;;;21.12;82.89;97028.31;5075110;28;20657;-66
2022/07/24 03:17:20;;;;;;;81.00;76.07;;;;;;;20.84;84.56;97026.59;5074745;28;20196;-66
2022/07/24 03:19:46;;;;;;;90.80;85.30;;;;;;;20.75;84.75;97022.94;5074834;28;20227;-66
2022/07/24 03:22:12;;;;;;;84.60;79.30;;;;;;;20.51;85.87;97017.63;5074920;28;20178;-66
2022/07/24 03:24:37;;;;;;;81.40;76.10;;;;;;;20.54;85.66;97016.28;5074678;28;20181;-66
2022/07/24 03:27:03;;;;;;;70.85;66.35;;;;;;;20.66;84.58;97027.34;5074809;28;20239;-66
2022/07/24 03:29:28;;;;;;;82.20;77.15;;;;;;;20.63;83.84;97026.03;5056255;28;20192;-65
2022/07/24 03:31:53;;;;;;;94.85;89.25;;;;;;;20.65;83.05;97034.53;5074893;28;20181;-65
2022/07/24 03:34:19;;;;;;;94.60;88.95;;;;;;;20.70;82.85;97023.00;5073917;28;20208;-67
2022/07/24 03:36:44;;;;;;;94.80;89.07;;;;;;;20.73;82.87;97027.78;5074718;28;20197;-65
2022/07/24 03:39:09;;;;;;;91.25;85.90;;;;;;;20.57;83.90;97035.16;5074291;28;20268;-65
2022/07/24 03:41:35;;;;;;;83.57;78.50;;;;;;;20.46;84.75;97027.56;5074291;28;20238;-66
2022/07/24 03:44:00;;;;;;;67.95;63.67;;;;;;;20.78;83.25;97029.59;5074453;28;20264;-66
2022/07/24 03:46:28;;;;;;;92.65;86.65;;;;;;;20.86;83.47;97031.59;5074241;28;20209;-65
2022/07/24 03:48:53;;;;;;;140.02;131.82;;;;;;;20.51;86.09;97032.81;5074126;28;20342;-65
2022/07/24 03:51:18;;;;;;;193.50;182.43;;;;;;;20.41;86.96;97027.59;5074300;28;20661;-66
2022/07/24 03:53:44;;;;;;;220.52;208.18;;;;;;;20.19;89.07;97030.75;5074263;28;20213;-65
2022/07/24 03:56:09;;;;;;;229.23;215.77;;;;;;;20.32;88.39;97038.09;5074068;28;20275;-66
2022/07/24 03:58:35;;;;;;;226.23;213.65;;;;;;;20.23;87.99;97035.22;5073359;28;20185;-66
2022/07/24 04:01:01;;;;;;;181.77;171.52;;;;;;;20.29;87.51;97033.28;5071009;28;20705;-66
2022/07/24 04:03:27;;;;;;;204.73;193.30;;;;;;;20.42;87.27;97037.19;5073030;28;20565;-67
2022/07/24 04:05:52;;;;;;;198.82;187.57;;;;;;;20.37;87.86;97032.72;5073209;28;20213;-66
2022/07/24 04:08:18;;;;;;;192.20;180.95;;;;;;;20.47;87.72;97040.59;5073688;28;20223;-66
2022/07/24 04:10:44;;;;;;;187.27;176.45;;;;;;;20.62;86.56;97039.63;5073858;28;20533;-67
2022/07/24 04:13:09;;;;;;;175.15;164.93;;;;;;;20.69;86.42;97045.41;5074204;28;20209;-67
2022/07/24 04:15:34;;;;;;;152.63;143.90;;;;;;;20.87;85.10;97046.53;5074129;28;20653;-66
2022/07/24 04:18:00;;;;;;;129.38;121.80;;;;;;;20.80;84.96;97046.06;5073940;28;20200;-68
2022/07/24 04:20:25;;;;;;;89.97;84.35;;;;;;;20.63;86.15;97051.88;5073413;28;20189;-67
2022/07/24 04:22:51;;;;;;;81.28;76.30;;;;;;;20.69;84.75;97048.06;5074169;28;20188;-67
2022/07/24 04:25:16;;;;;;;137.32;129.55;;;;;;;21.05;82.10;97046.56;5073282;28;20197;-66
2022/07/24 04:27:43;;;;;;;139.77;131.48;;;;;;;21.20;81.80;97053.56;5073343;28;20240;-66
2022/07/24 04:30:10;;;;;;;158.05;149.23;;;;;;;20.95;83.46;97051.22;5073729;28;20181;-67
2022/07/24 04:32:35;;;;;;;130.82;123.38;;;;;;;20.83;84.16;97056.97;5073721;28;20209;-67
2022/07/24 04:35:00;;;;;;;163.30;154.18;;;;;;;21.14;84.24;97063.53;5073387;28;20342;-67
2022/07/24 04:37:26;;;;;;;154.35;145.82;;;;;;;20.77;85.74;97059.97;5073344;28;20770;-66
2022/07/24 04:39:52;;;;;;;159.23;150.20;;;;;;;20.58;88.23;97057.25;5073249;28;20182;-66
2022/07/24 04:42:17;;;;;;;109.78;103.22;;;;;;;20.93;85.94;97064.03;5073204;28;20204;-66
2022/07/24 04:44:43;;;;;;;146.63;138.15;;;;;;;20.85;85.76;97065.44;5072699;28;20189;-66
2022/07/24 04:47:08;;;;;;;131.57;124.00;;;;;;;21.02;85.15;97064.97;5073000;28;20669;-67
2022/07/24 04:49:33;;;;;;;137.40;129.38;;;;;;;21.49;82.24;97061.44;5072417;28;20188;-67
2022/07/24 04:51:59;;;;;;;203.27;192.20;;;;;;;21.39;82.10;97065.06;5073169;28;20641;-66
2022/07/24 04:54:24;;;;;;;220.40;208.55;;;;;;;21.42;81.93;97069.81;5072750;28;20231;-67
2022/07/24 04:56:49;;;;;;;162.80;153.77;;;;;;;21.42;82.45;97069.00;5072383;28;20174;-66
2022/07/24 04:59:15;;;;;;;125.82;118.57;;;;;;;21.54;81.49;97078.16;5073246;28;20238;-66
2022/07/24 05:01:40;;;;;;;121.25;114.38;;;;;;;21.54;80.99;97074.69;5072481;28;20188;-66
2022/07/24 05:04:06;;;;;;;380.67;356.88;;;;;;;22.11;78.82;97067.44;5072467;28;20219;-67
2022/07/24 05:06:31;;;;;;;306.58;289.15;;;;;;;21.81;79.66;97077.47;5072295;28;20204;-66
2022/07/24 05:08:56;;;;;;;412.73;389.48;;;;;;;22.08;78.45;97076.81;5073099;28;20192;-67
2022/07/24 05:11:22;;;;;;;260.88;246.35;;;;;;;22.57;76.22;97084.19;5072779;28;20191;-66
2022/07/24 05:13:47;;;;;;;414.52;390.42;;;;;;;22.87;74.24;97079.38;5072359;28;20239;-67
2022/07/24 05:16:13;;;;;;;440.90;415.67;;;;;;;23.13;72.80;97075.09;5054813;28;20205;-68
2022/07/24 05:18:38;;;;;;;451.67;425.83;;;;;;;22.98;73.07;97081.56;5072871;28;20267;-67
2022/07/24 05:21:04;;;;;;;445.67;420.40;;;;;;;22.85;73.67;97082.34;5054884;28;20182;-66
2022/07/24 05:23:29;;;;;;;371.38;350.80;;;;;;;22.91;74.08;97078.50;5072705;28;20638;-66
2022/07/24 05:25:54;;;;;;;344.02;325.13;;;;;;;23.54;71.37;97083.88;5072777;28;20205;-66
2022/07/24 05:28:20;;;;;;;215.70;203.70;;;;;;;23.65;70.88;97083.63;5072775;28;20261;-67
2022/07/24 05:30:45;;;;;;;136.77;128.70;;;;;;;23.18;70.86;97081.13;5072987;28;20189;-67
2022/07/24 05:33:10;;;;;;;126.43;118.93;;;;;;;23.65;69.84;97081.75;5072681;28;20185;-67
2022/07/24 05:35:36;;;;;;;105.03;98.93;;;;;;;24.19;66.95;97085.28;5072205;28;20221;-66
2022/07/24 05:38:01;;;;;;;92.18;86.63;;;;;;;23.50;69.24;97077.53;5072468;28;20178;-66
2022/07/24 05:40:27;;;;;;;99.93;93.82;;;;;;;23.92;67.21;97078.94;5072736;28;20177;-67
2022/07/24 05:42:52;;;;;;;131.27;123.93;;;;;;;24.74;64.55;97072.31;5072657;28;20197;-67
2022/07/24 05:45:17;;;;;;;137.57;130.10;;;;;;;24.86;63.93;97075.97;5071916;28;20300;-69
2022/07/24 05:47:43;;;;;;;136.85;129.25;;;;;;;25.13;62.91;97069.59;5038641;28;20268;-67
2022/07/24 05:50:09;;;;;;;125.45;118.30;;;;;;;25.13;62.42;97072.28;5072742;28;20645;-67
2022/07/24 05:52:35;;;;;;;110.07;103.85;;;;;;;25.14;62.79;97071.19;5072453;28;20185;-66
2022/07/24 05:55:01;;;;;;;87.88;82.72;;;;;;;25.04;62.58;97068.00;5072171;28;20710;-67
2022/07/24 05:57:27;;;;;;;90.60;84.93;;;;;;;25.27;61.86;97069.47;5074145;28;20189;-66
2022/07/24 05:59:52;;;;;;;86.53;81.50;;;;;;;25.09;62.56;97071.34;5076949;28;20644;-67
2022/07/24 06:02:17;;;;;;;98.07;92.18;;;;;;;25.49;61.34;97079.28;5076097;28;20264;-67
2022/07/24 06:04:43;;;;;;;117.70;110.43;;;;;;;25.52;61.07;97073.31;5076273;28;20281;-64
2022/07/24 06:07:09;;;;;;;108.05;101.90;;;;;;;25.63;60.79;97071.91;5075470;28;20203;-67
2022/07/24 06:09:36;;;;;;;99.45;93.72;;;;;;;25.93;60.45;97078.97;5075721;28;20290;-66
2022/07/24 06:12:02;;;;;;;72.35;67.97;;;;;;;26.32;59.02;97075.28;5075441;28;20203;-67
2022/07/24 06:14:28;;;;;;;68.20;64.22;;;;;;;26.39;58.25;97080.97;5074708;28;20208;-66
2022/07/24 06:16:53;;;;;;;34.38;32.00;;;;;;;26.62;56.49;97068.09;5075079;28;20609;-66
2022/07/24 06:19:18;;;;;;;120.25;113.28;;;;;;;26.62;55.47;97073.47;5057658;28;20189;-66
2022/07/24 06:21:44;;;;;;;217.32;205.48;;;;;;;26.72;55.28;97075.00;5075322;28;20725;-66
2022/07/24 06:24:09;;;;;;;235.23;222.60;;;;;;;26.71;55.54;97079.59;5075770;28;20193;-65
2022/07/24 06:26:35;;;;;;;239.68;227.00;;;;;;;26.43;56.38;97075.75;5075728;28;20193;-65
2022/07/24 06:29:00;;;;;;;265.77;251.70;;;;;;;26.86;55.83;97073.66;5074973;28;20186;-66
2022/07/24 06:31:25;;;;;;;304.30;287.70;;;;;;;26.84;56.35;97081.28;5075160;28;20212;-66
2022/07/24 06:33:51;;;;;;;299.98;283.80;;;;;;;26.87;56.09;97079.81;5075342;28;20181;-67
2022/07/24 06:36:16;;;;;;;282.05;267.17;;;;;;;26.87;55.99;97086.03;5075697;28;20216;-67
2022/07/24 06:38:41;;;;;;;223.40;211.52;;;;;;;26.84;55.25;97091.25;5075804;28;20212;-67
2022/07/24 06:41:07;;;;;;;213.45;201.95;;;;;;;26.80;55.10;97085.75;5075615;28;20193;-66
2022/07/24 06:43:32;;;;;;;152.73;144.60;;;;;;;26.90;54.13;97081.91;5074808;28;20625;-67
2022/07/24 06:45:57;;;;;;;268.40;253.63;;;;;;;26.89;54.69;97081.13;5075389;28;20579;-67
2022/07/24 06:48:23;;;;;;;260.50;246.32;;;;;;;26.91;54.45;97085.41;5075400;28;20274;-67
2022/07/24 06:50:48;;;;;;;205.60;194.50;;;;;;;27.06;53.90;97087.53;5075036;28;20259;-68
2022/07/24 06:53:13;;;;;;;117.10;110.65;;;;;;;27.24;53.31;97083.63;5075050;28;20182;-68
2022/07/24 06:55:39;;;;;;;80.50;75.97;;;;;;;27.44;52.81;97074.75;5075316;28;20224;-68
2022/07/24 06:58:04;;;;;;;154.98;146.65;;;;;;;27.37;52.40;97071.00;5073524;28;20638;-68
2022/07/24 07:00:29;;;;;;;217.00;205.15;;;;;;;27.50;51.92;97070.78;5074978;28;20268;-68
2022/07/24 07:02:55;;;;;;;338.63;319.55;;;;;;;27.66;51.83;97073.66;5075009;28;20201;-67
2022/07/24 07:05:20;;;;;;;462.27;435.83;;;;;;;27.61;51.38;97076.56;5074182;28;20572;-68
2022/07/24 07:07:46;;;;;;;422.63;398.05;;;;;;;27.27;51.74;97072.97;5074118;28;20193;-67
2022/07/24 07:10:11;;;;;;;350.10;329.88;;;;;;;26.91;53.05;97075.44;5074265;28;20235;-68
2022/07/24 07:12:37;;;;;;;252.05;238.15;;;;;;;27.37;52.20;97071.00;5074532;28;20545;-68
2022/07/24 07:15:04;;;;;;;317.92;300.08;;;;;;;27.48;51.44;97074.88;5074802;28;20281;-67
2022/07/24 07:17:29;;;;;;;429.67;405.55;;;;;;;27.66;50.78;97076.34;5075203;28;20330;-68
2022/07/24 07:19:55;;;;;;;401.77;379.15;;;;;;;27.52;51.36;97078.53;5074499;28;20641;-68
2022/07/24 07:22:20;;;;;;;361.25;340.63;;;;;;;27.55;49.69;97075.97;5056168;28;20203;-66
2022/07/24 07:24:45;;;;;;;391.25;367.92;;;;;;;27.69;49.20;97081.09;5074642;28;20197;-67
2022/07/24 07:27:10;;;;;;;584.20;544.55;;;;;;;28.03;48.41;97080.00;5074585;28;20200;-67
2022/07/24 07:29:36;;;;;;;635.35;595.67;;;;;;;28.04;47.26;97071.56;5074301;28;20268;-67
2022/07/24 07:32:01;;;;;;;469.83;441.00;;;;;;;28.10;46.92;97070.25;5071814;28;20277;-68
2022/07/24 07:34:27;;;;;;;488.40;457.92;;;;;;;28.21;47.29;97081.44;5074026;28;20586;-67
2022/07/24 07:36:52;;;;;;;418.60;393.15;;;;;;;28.27;46.57;97074.69;5074278;28;20215;-68
2022/07/24 07:39:18;;;;;;;370.65;349.55;;;;;;;28.47;46.82;97079.25;5073515;28;20535;-68
2022/07/24 07:41:43;;;;;;;359.58;340.50;;;;;;;28.37;45.99;97076.97;5074357;28;20254;-67
2022/07/24 07:44:09;;;;;;;211.55;200.88;;;;;;;28.25;45.20;97082.34;5072806;28;20666;-68
2022/07/24 07:46:34;;;;;;;349.15;331.00;;;;;;;28.78;45.50;97076.03;5073075;28;20220;-66
2022/07/24 07:48:59;;;;;;;265.50;251.85;;;;;;;28.71;45.61;97080.38;5074491;28;20188;-66
2022/07/24 07:51:25;;;;;;;315.75;299.95;;;;;;;29.10;45.05;97078.94;5073847;28;20634;-67
2022/07/24 07:53:50;;;;;;;188.23;178.60;;;;;;;29.00;43.41;97088.28;5073945;28;20213;-66
2022/07/24 07:56:16;;;;;;;187.73;178.18;;;;;;;27.84;45.36;97079.69;5073344;28;20316;-65
2022/07/24 07:58:41;;;;;;;159.63;151.40;;;;;;;28.67;45.15;97082.97;5056404;28;20177;-65
2022/07/24 08:01:06;;;;;;;163.35;155.10;;;;;;;29.40;43.48;97087.59;5074394;28;20196;-66
2022/07/24 08:03:32;;;;;;;391.48;370.98;;;;;;;29.73;42.25;97083.59;5073618;28;20620;-66
2022/07/24 08:05:57;;;;;;;398.55;378.15;;;;;;;30.01;41.42;97089.03;5073112;28;20296;-67
2022/07/24 08:08:22;;;;;;;306.50;290.77;;;;;;;30.01;41.22;97085.53;5073749;28;20246;-67
2022/07/24 08:10:48;;;;;;;318.58;302.08;;;;;;;29.61;42.33;97080.13;5073880;28;20187;-67
2022/07/24 08:13:14;;;;;;;442.83;420.38;;;;;;;29.09;44.01;97083.56;5073690;28;20638;-67
2022/07/24 08:15:40;;;;;;;444.33;421.10;;;;;;;28.60;44.60;97081.94;5073467;28;20188;-66
2022/07/24 08:18:06;;;;;;;232.93;221.20;;;;;;;28.33;45.75;97083.38;5055813;28;20181;-66
2022/07/24 08:20:32;;;;;;;138.93;131.80;;;;;;;28.96;44.71;97081.22;5072784;28;20185;-67
2022/07/24 08:22:57;;;;;;;111.07;105.13;;;;;;;29.15;44.50;97079.50;5072898;28;20176;-66
2022/07/24 08:25:23;;;;;;;145.60;138.18;;;;;;;28.62;45.98;97090.50;5072797;28;20277;-66
2022/07/24 08:27:48;;;;;;;167.55;159.18;;;;;;;27.55;47.90;97078.66;5073509;28;20181;-66
2022/07/24 08:30:14;;;;;;;186.38;176.13;;;;;;;27.68;48.10;97074.13;5072964;28;20188;-66
2022/07/24 08:32:40;;;;;;;161.25;152.65;;;;;;;28.05;46.57;97073.16;5073335;28;20656;-66
2022/07/24 08:35:06;;;;;;;220.48;208.73;;;;;;;28.39;46.24;97074.72;5073255;28;20270;-66
2022/07/24 08:37:41;;;;;;;156.63;148.23;;;;;;;28.14;45.34;97069.63;5073290;28;20187;-66
2022/07/24 08:40:09;;;;;;;147.95;139.77;;;;;;;28.11;45.40;97071.81;5073204;28;20254;-65
2022/07/24 08:42:42;;;;;;;217.00;205.82;;;;;;;28.61;43.62;97062.72;5073560;28;21116;-66
2022/07/24 08:45:08;;;;;;;181.60;172.63;;;;;;;28.83;43.14;97061.53;5077032;28;20185;-65
2022/07/24 08:47:34;;;;;;;143.65;136.40;;;;;;;28.50;44.17;97065.09;5070138;28;20197;-65
2022/07/24 08:50:02;;;;;;;167.23;158.90;;;;;;;28.89;43.72;97060.19;5068405;28;20192;-66
2022/07/24 08:52:27;;;;;;;372.27;353.35;;;;;;;28.29;43.75;97058.19;5069496;28;20204;-65
2022/07/24 08:54:53;;;;;;;256.17;243.38;;;;;;;28.34;44.06;97063.38;5069379;28;20633;-65
2022/07/24 08:57:19;;;;;;;397.40;377.40;;;;;;;28.34;42.92;97063.38;5068659;28;20181;-65
2022/07/24 08:59:45;;;;;;;394.35;374.75;;;;;;;27.84;44.08;97060.84;5069499;28;20188;-65
2022/07/24 09:02:11;;;;;;;285.98;271.23;;;;;;;28.49;43.62;97063.50;5069264;28;20201;-65
2022/07/24 09:04:39;;;;;;;224.65;213.52;;;;;;;29.04;43.10;97059.50;5068820;28;20246;-66
2022/07/24 09:07:08;;;;;;;347.65;330.38;;;;;;;29.32;42.17;97054.97;5061777;28;20246;-65
2022/07/24 09:09:34;;;;;;;323.08;306.98;;;;;;;29.40;41.48;97066.78;5069237;28;20181;-66
2022/07/24 09:12:10;;;;;;;297.35;282.50;;;;;;;29.41;42.14;97060.25;5068984;28;20242;-65
2022/07/24 09:14:41;;;;;;;278.83;264.95;;;;;;;29.62;41.28;97060.09;5069535;28;20213;-65
2022/07/24 09:17:12;;;;;;;240.40;228.23;;;;;;;29.91;39.37;97059.00;5069336;28;20181;-65
2022/07/24 09:19:55;;;;;;;330.30;312.98;;;;;;;28.45;42.04;97068.00;5069623;28;20189;-65
2022/07/24 09:22:41;;;;;;;404.52;382.65;;;;;;;29.06;40.58;97067.25;5061804;28;20232;-65
2022/07/24 09:25:18;;;;;;;145.63;138.15;;;;;;;29.49;40.19;97058.53;5068833;28;20543;-65
2022/07/24 09:28:13;;;;;;;432.58;408.38;;;;;;;29.87;39.37;97056.13;5069363;28;20195;-65
2022/07/24 09:30:42;;;;;;;553.90;521.47;;;;;;;29.74;39.32;97058.13;5055085;28;20239;-65
2022/07/24 09:33:11;;;;;;;641.00;605.95;;;;;;;28.56;40.77;97057.56;5068782;28;20181;-65
2022/07/24 09:35:38;;;;;;;598.40;562.70;;;;;;;29.40;40.57;97061.38;5068835;28;20542;-65
2022/07/24 09:38:05;;;;;;;611.08;574.03;;;;;;;29.41;40.58;97062.19;5068914;28;20194;-68
2022/07/24 09:40:33;;;;;;;593.72;557.40;;;;;;;29.62;39.90;97055.47;5068125;28;20250;-65
2022/07/24 09:43:18;;;;;;;738.17;694.45;;;;;;;29.25;40.25;97053.97;5070888;28;20204;-66
2022/07/24 09:46:04;;;;;;;676.92;637.30;;;;;;;29.36;39.42;97048.91;5069037;28;20637;-65
2022/07/24 09:48:38;;;;;;;729.22;684.58;;;;;;;29.73;39.25;97058.47;5069016;28;20239;-65
2022/07/24 09:51:14;;;;;;;729.67;686.75;;;;;;;29.89;38.71;97055.81;5068305;28;20181;-66
2022/07/24 09:53:40;;;;;;;567.63;537.03;;;;;;;29.07;39.85;97045.31;5057847;28;20185;-66
2022/07/24 09:56:12;;;;;;;665.63;629.03;;;;;;;29.76;38.73;97049.66;5054391;28;20190;-65
2022/07/24 09:58:40;;;;;;;771.88;727.03;;;;;;;30.01;38.85;97040.34;5055338;28;20221;-66
2022/07/24 10:01:08;;;;;;;497.27;470.33;;;;;;;29.01;39.92;97038.59;5055160;28;20212;-66
2022/07/24 10:03:38;;;;;;;379.60;359.27;;;;;;;29.46;39.07;97035.72;5055084;28;20190;-65
2022/07/24 10:06:06;;;;;;;469.75;444.00;;;;;;;29.76;38.97;97044.25;5054294;28;20189;-69
2022/07/24 10:08:36;;;;;;;353.58;334.17;;;;;;;29.86;38.91;97038.38;5055651;28;20189;-65
2022/07/24 10:11:02;;;;;;;260.73;246.80;;;;;;;29.49;38.71;97037.72;5054471;28;20610;-68
2022/07/24 10:13:28;;;;;;;276.17;261.23;;;;;;;29.46;39.14;97033.00;5054242;28;20186;-65
2022/07/24 10:15:59;;;;;;;303.55;286.88;;;;;;;29.83;39.10;97028.25;5053234;28;20268;-66
2022/07/24 10:18:45;;;;;;;263.70;249.85;;;;;;;30.47;37.74;97028.03;5054759;28;20182;-66
2022/07/24 10:21:16;;;;;;;177.25;168.02;;;;;;;29.81;38.79;97029.72;5042613;28;20213;-65
2022/07/24 10:24:05;;;;;;;170.10;161.18;;;;;;;30.49;37.50;97017.63;5054119;28;20197;-67
2022/07/24 10:26:35;;;;;;;81.22;76.82;;;;;;;30.70;37.38;97022.78;5045097;28;20188;-66
2022/07/24 10:29:07;;;;;;;59.63;56.38;;;;;;;30.25;37.69;97025.91;5054824;28;20186;-66
2022/07/24 10:31:35;;;;;;;55.80;52.75;;;;;;;29.88;38.42;97019.88;5054589;28;20548;-67
2022/07/24 10:34:06;;;;;;;57.33;54.05;;;;;;;29.65;39.63;97018.84;5054440;28;20189;-66
2022/07/24 10:36:38;;;;;;;203.00;193.05;;;;;;;29.94;39.32;97020.44;5054663;28;20173;-66
2022/07/24 10:39:13;;;;;;;247.75;235.27;;;;;;;29.88;39.32;97022.56;5054199;28;20185;-66
2022/07/24 10:41:38;;;;;;;192.18;182.40;;;;;;;29.64;39.50;97015.38;5053425;28;20244;-67
2022/07/24 10:44:14;;;;;;;230.50;218.93;;;;;;;28.83;40.93;97018.34;5054053;28;20627;-67
2022/07/24 10:47:03;;;;;;;233.32;221.52;;;;;;;28.32;41.42;97015.16;5053891;28;20260;-66
2022/07/24 10:49:45;;;;;;;462.75;437.52;;;;;;;28.52;42.11;97017.00;5053859;28;20196;-66
2022/07/24 10:52:20;;;;;;;729.88;688.22;;;;;;;28.73;41.84;97016.13;5040487;28;20187;-66
2022/07/24 10:54:45;;;;;;;872.90;819.72;;;;;;;28.52;42.38;97008.91;5054454;28;20178;-65
2022/07/24 10:57:10;;;;;;;891.03;833.40;;;;;;;28.58;42.37;97022.16;5061279;28;20185;-65
2022/07/24 10:59:41;;;;;;;854.63;799.15;;;;;;;28.42;42.57;97003.16;5056142;28;20273;-67
2022/07/24 11:02:28;;;;;;;804.22;752.90;;;;;;;28.51;41.42;97006.53;5054034;28;20285;-66